Evans Junction, Iowa
Current Conditions -  °F | °C
As of 9:55 AM on Friday 31 Oct 2014 (Local Time) from KPEA Reporting Station
Clear Clear  
Wind Chill: 21°   Ceiling: Unl
Heat Index: 32°   Visibility: 10mi
Dew Point: 20°   Wind: 18mph
Humidity: 61%   Direction: 350°N
Pressure: 30.48"   Gusts: 23mph
Location:  41.2952°N, 92.7652°W
Report Text: KPEA 311455Z AUTO 35016G20KT 10SM CLR 00/M07 A3048 RMK AO2 T00021066
Loading
Personal Weather Stations






























Interactive Weather Map
Tropical Storm Tracking
New forecast layout! Learn more

10-Day Weather Forecast

Advertisements
Track Severe Weather on mobile